sensor_id;sensor_type;location;lat;lon;timestamp;temperature;humidity
67364;HTU21D;54250;45.572;38.086;2023-01-29T00:01:36;0.51;92.23
67364;HTU21D;54250;45.572;38.086;2023-01-29T00:04:02;0.51;92.30
67364;HTU21D;54250;45.572;38.086;2023-01-29T00:06:28;0.52;92.27
67364;HTU21D;54250;45.572;38.086;2023-01-29T00:08:54;0.51;92.14
67364;HTU21D;54250;45.572;38.086;2023-01-29T00:11:20;0.50;92.27
67364;HTU21D;54250;45.572;38.086;2023-01-29T00:13:46;0.49;92.36
67364;HTU21D;54250;45.572;38.086;2023-01-29T00:16:12;0.53;92.51
67364;HTU21D;54250;45.572;38.086;2023-01-29T00:18:39;0.59;92.27
67364;HTU21D;54250;45.572;38.086;2023-01-29T00:21:13;0.62;92.34
67364;HTU21D;54250;45.572;38.086;2023-01-29T00:23:40;0.68;92.40
67364;HTU21D;54250;45.572;38.086;2023-01-29T00:26:06;0.74;92.20
67364;HTU21D;54250;45.572;38.086;2023-01-29T00:28:32;0.83;92.06
67364;HTU21D;54250;45.572;38.086;2023-01-29T00:31:08;0.94;91.83
67364;HTU21D;54250;45.572;38.086;2023-01-29T00:33:35;1.04;91.69
67364;HTU21D;54250;45.572;38.086;2023-01-29T00:36:06;1.12;91.50
67364;HTU21D;54250;45.572;38.086;2023-01-29T00:38:33;1.17;91.47
67364;HTU21D;54250;45.572;38.086;2023-01-29T00:41:12;1.24;91.34
67364;HTU21D;54250;45.572;38.086;2023-01-29T00:43:58;1.31;91.31
67364;HTU21D;54250;45.572;38.086;2023-01-29T00:46:47;1.33;91.21
67364;HTU21D;54250;45.572;38.086;2023-01-29T00:49:13;1.36;91.16
67364;HTU21D;54250;45.572;38.086;2023-01-29T00:51:39;1.33;91.18
67364;HTU21D;54250;45.572;38.086;2023-01-29T00:54:05;1.35;91.21
67364;HTU21D;54250;45.572;38.086;2023-01-29T00:56:33;1.36;91.19
67364;HTU21D;54250;45.572;38.086;2023-01-29T00:59:00;1.34;91.11
67364;HTU21D;54250;45.572;38.086;2023-01-29T01:01:26;1.25;91.10
67364;HTU21D;54250;45.572;38.086;2023-01-29T01:04:11;1.11;91.37
67364;HTU21D;54250;45.572;38.086;2023-01-29T01:06:38;1.03;91.58
67364;HTU21D;54250;45.572;38.086;2023-01-29T01:09:06;0.94;91.62
67364;HTU21D;54250;45.572;38.086;2023-01-29T01:11:51;0.86;91.74
67364;HTU21D;54250;45.572;38.086;2023-01-29T01:14:18;0.79;91.84
67364;HTU21D;54250;45.572;38.086;2023-01-29T01:16:45;0.76;91.93
67364;HTU21D;54250;45.572;38.086;2023-01-29T01:19:12;0.72;91.89
67364;HTU21D;54250;45.572;38.086;2023-01-29T01:21:38;0.67;91.90
67364;HTU21D;54250;45.572;38.086;2023-01-29T01:24:04;0.61;91.88
67364;HTU21D;54250;45.572;38.086;2023-01-29T01:26:31;0.59;91.93
67364;HTU21D;54250;45.572;38.086;2023-01-29T01:28:58;0.57;91.89
67364;HTU21D;54250;45.572;38.086;2023-01-29T01:31:24;0.57;91.83
67364;HTU21D;54250;45.572;38.086;2023-01-29T01:33:50;0.59;91.76
67364;HTU21D;54250;45.572;38.086;2023-01-29T01:36:18;0.67;91.69
67364;HTU21D;54250;45.572;38.086;2023-01-29T01:38:44;0.80;91.36
67364;HTU21D;54250;45.572;38.086;2023-01-29T01:41:13;0.93;91.14
67364;HTU21D;54250;45.572;38.086;2023-01-29T01:43:55;1.04;90.87
67364;HTU21D;54250;45.572;38.086;2023-01-29T01:46:23;1.12;90.79
67364;HTU21D;54250;45.572;38.086;2023-01-29T01:48:57;1.22;90.66
67364;HTU21D;54250;45.572;38.086;2023-01-29T01:51:25;1.29;90.59
67364;HTU21D;54250;45.572;38.086;2023-01-29T01:54:00;1.29;90.55
67364;HTU21D;54250;45.572;38.086;2023-01-29T01:56:32;1.31;90.68
67364;HTU21D;54250;45.572;38.086;2023-01-29T01:59:16;1.34;90.60
67364;HTU21D;54250;45.572;38.086;2023-01-29T02:01:46;1.32;90.62
67364;HTU21D;54250;45.572;38.086;2023-01-29T02:04:21;1.24;90.71
67364;HTU21D;54250;45.572;38.086;2023-01-29T02:07:10;1.21;90.90
67364;HTU21D;54250;45.572;38.086;2023-01-29T02:12:32;1.24;91.08
67364;HTU21D;54250;45.572;38.086;2023-01-29T02:14:58;1.32;90.95
67364;HTU21D;54250;45.572;38.086;2023-01-29T02:17:24;1.39;90.76
67364;HTU21D;54250;45.572;38.086;2023-01-29T02:36:10;1.79;90.23
67364;HTU21D;54250;45.572;38.086;2023-01-29T02:47:16;1.81;90.18
67364;HTU21D;54250;45.572;38.086;2023-01-29T02:49:48;1.85;90.18
67364;HTU21D;54250;45.572;38.086;2023-01-29T02:52:21;1.85;90.22
67364;HTU21D;54250;45.572;38.086;2023-01-29T02:55:23;1.88;90.10
67364;HTU21D;54250;45.572;38.086;2023-01-29T02:57:54;1.92;90.08
67364;HTU21D;54250;45.572;38.086;2023-01-29T03:00:44;1.95;89.98
67364;HTU21D;54250;45.572;38.086;2023-01-29T03:03:41;1.96;90.00
67364;HTU21D;54250;45.572;38.086;2023-01-29T03:06:32;2.01;89.94
67364;HTU21D;54250;45.572;38.086;2023-01-29T03:09:04;2.03;89.93
67364;HTU21D;54250;45.572;38.086;2023-01-29T03:11:37;2.03;89.92
67364;HTU21D;54250;45.572;38.086;2023-01-29T03:14:09;1.98;89.96
67364;HTU21D;54250;45.572;38.086;2023-01-29T03:16:48;1.97;89.99
67364;HTU21D;54250;45.572;38.086;2023-01-29T03:21:57;1.96;90.14
67364;HTU21D;54250;45.572;38.086;2023-01-29T03:27:23;1.97;90.05
67364;HTU21D;54250;45.572;38.086;2023-01-29T03:30:11;1.95;90.02
67364;HTU21D;54250;45.572;38.086;2023-01-29T03:33:14;1.94;89.98
67364;HTU21D;54250;45.572;38.086;2023-01-29T03:35:52;1.91;90.05
67364;HTU21D;54250;45.572;38.086;2023-01-29T03:38:21;1.91;90.05
67364;HTU21D;54250;45.572;38.086;2023-01-29T03:40:54;1.88;89.99
67364;HTU21D;54250;45.572;38.086;2023-01-29T03:46:14;1.91;89.92
67364;HTU21D;54250;45.572;38.086;2023-01-29T03:48:57;1.86;89.89
67364;HTU21D;54250;45.572;38.086;2023-01-29T03:51:33;1.90;89.90
67364;HTU21D;54250;45.572;38.086;2023-01-29T03:54:09;1.88;89.85
67364;HTU21D;54250;45.572;38.086;2023-01-29T03:57:00;1.86;89.88
67364;HTU21D;54250;45.572;38.086;2023-01-29T03:59:47;1.83;90.00
67364;HTU21D;54250;45.572;38.086;2023-01-29T04:05:23;1.82;90.01
67364;HTU21D;54250;45.572;38.086;2023-01-29T04:08:21;1.81;89.96
67364;HTU21D;54250;45.572;38.086;2023-01-29T04:10:51;1.80;89.99
67364;HTU21D;54250;45.572;38.086;2023-01-29T04:13:18;1.81;89.99
67364;HTU21D;54250;45.572;38.086;2023-01-29T04:15:49;1.84;89.98
67364;HTU21D;54250;45.572;38.086;2023-01-29T04:18:18;1.83;89.99
67364;HTU21D;54250;45.572;38.086;2023-01-29T04:21:04;1.86;89.95
67364;HTU21D;54250;45.572;38.086;2023-01-29T04:23:32;1.86;89.91
67364;HTU21D;54250;45.572;38.086;2023-01-29T04:31:10;1.91;89.83
67364;HTU21D;54250;45.572;38.086;2023-01-29T04:36:40;1.93;89.74
67364;HTU21D;54250;45.572;38.086;2023-01-29T04:39:16;1.94;89.77
67364;HTU21D;54250;45.572;38.086;2023-01-29T04:44:38;1.93;89.79
67364;HTU21D;54250;45.572;38.086;2023-01-29T04:48:03;1.92;89.63
67364;HTU21D;54250;45.572;38.086;2023-01-29T04:56:32;1.83;89.86
67364;HTU21D;54250;45.572;38.086;2023-01-29T04:59:04;1.82;89.91
67364;HTU21D;54250;45.572;38.086;2023-01-29T05:01:33;1.81;89.98
67364;HTU21D;54250;45.572;38.086;2023-01-29T05:04:03;1.80;89.99
67364;HTU21D;54250;45.572;38.086;2023-01-29T05:06:31;1.79;90.02
67364;HTU21D;54250;45.572;38.086;2023-01-29T05:08:58;1.80;89.95
67364;HTU21D;54250;45.572;38.086;2023-01-29T05:11:25;1.82;89.86
67364;HTU21D;54250;45.572;38.086;2023-01-29T05:13:52;1.90;89.71
67364;HTU21D;54250;45.572;38.086;2023-01-29T05:16:22;1.94;89.50
67364;HTU21D;54250;45.572;38.086;2023-01-29T05:18:51;1.98;89.44
67364;HTU21D;54250;45.572;38.086;2023-01-29T05:21:18;2.03;89.33
67364;HTU21D;54250;45.572;38.086;2023-01-29T05:23:44;2.02;89.34
67364;HTU21D;54250;45.572;38.086;2023-01-29T05:26:22;2.05;89.32
67364;HTU21D;54250;45.572;38.086;2023-01-29T05:29:06;2.07;89.30
67364;HTU21D;54250;45.572;38.086;2023-01-29T05:31:32;2.11;89.28
67364;HTU21D;54250;45.572;38.086;2023-01-29T05:33:58;2.14;89.22
67364;HTU21D;54250;45.572;38.086;2023-01-29T05:36:24;2.20;89.18
67364;HTU21D;54250;45.572;38.086;2023-01-29T05:38:51;2.21;89.09
67364;HTU21D;54250;45.572;38.086;2023-01-29T05:41:17;2.28;89.04
67364;HTU21D;54250;45.572;38.086;2023-01-29T05:43:43;2.34;88.95
67364;HTU21D;54250;45.572;38.086;2023-01-29T05:46:09;2.36;88.89
67364;HTU21D;54250;45.572;38.086;2023-01-29T05:48:35;2.39;88.83
67364;HTU21D;54250;45.572;38.086;2023-01-29T05:51:03;2.44;88.78
67364;HTU21D;54250;45.572;38.086;2023-01-29T05:53:32;2.50;88.67
67364;HTU21D;54250;45.572;38.086;2023-01-29T05:56:00;2.54;88.57
67364;HTU21D;54250;45.572;38.086;2023-01-29T05:58:28;2.58;88.49
67364;HTU21D;54250;45.572;38.086;2023-01-29T06:00:54;2.62;88.43
67364;HTU21D;54250;45.572;38.086;2023-01-29T06:03:20;2.67;88.39
67364;HTU21D;54250;45.572;38.086;2023-01-29T06:05:46;2.72;88.33
67364;HTU21D;54250;45.572;38.086;2023-01-29T06:08:12;2.74;88.29
67364;HTU21D;54250;45.572;38.086;2023-01-29T06:10:38;2.79;88.24
67364;HTU21D;54250;45.572;38.086;2023-01-29T06:13:04;2.83;88.22
67364;HTU21D;54250;45.572;38.086;2023-01-29T06:15:31;2.90;88.12
67364;HTU21D;54250;45.572;38.086;2023-01-29T06:17:57;2.99;88.06
67364;HTU21D;54250;45.572;38.086;2023-01-29T06:20:23;3.05;87.90
67364;HTU21D;54250;45.572;38.086;2023-01-29T06:22:49;3.20;87.78
67364;HTU21D;54250;45.572;38.086;2023-01-29T06:25:15;3.32;87.57
67364;HTU21D;54250;45.572;38.086;2023-01-29T06:27:41;3.43;87.42
67364;HTU21D;54250;45.572;38.086;2023-01-29T06:30:08;3.49;87.18
67364;HTU21D;54250;45.572;38.086;2023-01-29T06:32:34;3.58;87.01
67364;HTU21D;54250;45.572;38.086;2023-01-29T06:35:00;3.62;86.99
67364;HTU21D;54250;45.572;38.086;2023-01-29T06:37:26;3.64;86.93
67364;HTU21D;54250;45.572;38.086;2023-01-29T06:39:52;3.64;86.65
67364;HTU21D;54250;45.572;38.086;2023-01-29T06:42:18;3.67;86.77
67364;HTU21D;54250;45.572;38.086;2023-01-29T06:44:45;3.68;86.80
67364;HTU21D;54250;45.572;38.086;2023-01-29T06:47:11;3.69;86.80
67364;HTU21D;54250;45.572;38.086;2023-01-29T06:49:37;3.75;86.80
67364;HTU21D;54250;45.572;38.086;2023-01-29T06:52:03;3.78;86.70
67364;HTU21D;54250;45.572;38.086;2023-01-29T06:54:29;3.79;86.65
67364;HTU21D;54250;45.572;38.086;2023-01-29T06:56:55;3.80;86.68
67364;HTU21D;54250;45.572;38.086;2023-01-29T06:59:21;3.86;86.55
67364;HTU21D;54250;45.572;38.086;2023-01-29T07:01:47;3.92;86.41
67364;HTU21D;54250;45.572;38.086;2023-01-29T07:04:13;4.01;86.28
67364;HTU21D;54250;45.572;38.086;2023-01-29T07:06:39;4.12;86.12
67364;HTU21D;54250;45.572;38.086;2023-01-29T07:09:05;4.20;86.02
67364;HTU21D;54250;45.572;38.086;2023-01-29T07:11:31;4.27;85.93
67364;HTU21D;54250;45.572;38.086;2023-01-29T07:13:58;4.39;85.79
67364;HTU21D;54250;45.572;38.086;2023-01-29T07:16:24;4.60;85.55
67364;HTU21D;54250;45.572;38.086;2023-01-29T07:18:51;4.78;85.28
67364;HTU21D;54250;45.572;38.086;2023-01-29T07:21:17;4.96;84.93
67364;HTU21D;54250;45.572;38.086;2023-01-29T07:23:43;5.11;84.72
67364;HTU21D;54250;45.572;38.086;2023-01-29T07:26:09;5.26;84.45
67364;HTU21D;54250;45.572;38.086;2023-01-29T07:28:37;5.39;84.32
67364;HTU21D;54250;45.572;38.086;2023-01-29T07:31:03;5.51;84.23
67364;HTU21D;54250;45.572;38.086;2023-01-29T07:33:29;5.46;84.36
67364;HTU21D;54250;45.572;38.086;2023-01-29T07:35:55;5.53;84.45
67364;HTU21D;54250;45.572;38.086;2023-01-29T07:38:22;5.54;84.52
67364;HTU21D;54250;45.572;38.086;2023-01-29T07:40:48;5.65;84.54
67364;HTU21D;54250;45.572;38.086;2023-01-29T07:43:15;5.72;84.30
67364;HTU21D;54250;45.572;38.086;2023-01-29T07:45:41;5.76;84.32
67364;HTU21D;54250;45.572;38.086;2023-01-29T07:48:10;5.81;84.10
67364;HTU21D;54250;45.572;38.086;2023-01-29T07:50:37;5.92;84.10
67364;HTU21D;54250;45.572;38.086;2023-01-29T07:53:04;6.08;83.93
67364;HTU21D;54250;45.572;38.086;2023-01-29T07:55:31;6.30;83.67
67364;HTU21D;54250;45.572;38.086;2023-01-29T07:57:59;6.67;83.16
67364;HTU21D;54250;45.572;38.086;2023-01-29T08:00:26;7.64;81.81
67364;HTU21D;54250;45.572;38.086;2023-01-29T08:02:52;9.38;78.33
67364;HTU21D;54250;45.572;38.086;2023-01-29T08:05:18;10.09;76.51
67364;HTU21D;54250;45.572;38.086;2023-01-29T08:07:45;10.18;77.27
67364;HTU21D;54250;45.572;38.086;2023-01-29T08:10:12;10.54;76.98
67364;HTU21D;54250;45.572;38.086;2023-01-29T08:12:38;10.63;77.56
67364;HTU21D;54250;45.572;38.086;2023-01-29T08:15:04;10.54;78.43
67364;HTU21D;54250;45.572;38.086;2023-01-29T08:17:30;10.45;78.86
67364;HTU21D;54250;45.572;38.086;2023-01-29T08:19:56;10.88;79.30
67364;HTU21D;54250;45.572;38.086;2023-01-29T08:22:22;11.99;76.34
67364;HTU21D;54250;45.572;38.086;2023-01-29T08:24:48;13.19;75.16
67364;HTU21D;54250;45.572;38.086;2023-01-29T08:27:14;14.78;72.22
67364;HTU21D;54250;45.572;38.086;2023-01-29T08:29:40;15.97;68.43
67364;HTU21D;54250;45.572;38.086;2023-01-29T08:32:08;16.40;68.71
67364;HTU21D;54250;45.572;38.086;2023-01-29T08:34:35;17.17;68.12
67364;HTU21D;54250;45.572;38.086;2023-01-29T08:37:01;17.66;67.46
67364;HTU21D;54250;45.572;38.086;2023-01-29T08:39:27;17.52;67.97
67364;HTU21D;54250;45.572;38.086;2023-01-29T08:41:53;17.85;68.01
67364;HTU21D;54250;45.572;38.086;2023-01-29T08:44:19;17.79;68.07
67364;HTU21D;54250;45.572;38.086;2023-01-29T08:46:45;17.79;68.62
67364;HTU21D;54250;45.572;38.086;2023-01-29T08:49:11;17.73;68.23
67364;HTU21D;54250;45.572;38.086;2023-01-29T08:51:37;17.43;69.05
67364;HTU21D;54250;45.572;38.086;2023-01-29T08:54:03;16.81;70.35
67364;HTU21D;54250;45.572;38.086;2023-01-29T08:56:29;16.47;71.28
67364;HTU21D;54250;45.572;38.086;2023-01-29T08:58:56;16.31;70.95
67364;HTU21D;54250;45.572;38.086;2023-01-29T09:01:22;16.15;71.39
67364;HTU21D;54250;45.572;38.086;2023-01-29T09:03:48;16.03;71.56
67364;HTU21D;54250;45.572;38.086;2023-01-29T09:06:14;15.92;71.45
67364;HTU21D;54250;45.572;38.086;2023-01-29T09:08:41;15.91;71.78
67364;HTU21D;54250;45.572;38.086;2023-01-29T09:11:07;16.05;71.23
67364;HTU21D;54250;45.572;38.086;2023-01-29T09:13:33;16.25;70.64
67364;HTU21D;54250;45.572;38.086;2023-01-29T09:16:00;16.04;70.89
67364;HTU21D;54250;45.572;38.086;2023-01-29T09:18:28;16.42;70.37
67364;HTU21D;54250;45.572;38.086;2023-01-29T09:20:54;16.91;69.16
67364;HTU21D;54250;45.572;38.086;2023-01-29T09:23:20;16.92;68.90
67364;HTU21D;54250;45.572;38.086;2023-01-29T09:25:46;17.05;69.12
67364;HTU21D;54250;45.572;38.086;2023-01-29T09:28:12;17.10;69.34
67364;HTU21D;54250;45.572;38.086;2023-01-29T09:30:38;17.26;69.16
67364;HTU21D;54250;45.572;38.086;2023-01-29T09:33:05;16.76;69.00
67364;HTU21D;54250;45.572;38.086;2023-01-29T09:35:32;15.88;70.83
67364;HTU21D;54250;45.572;38.086;2023-01-29T09:37:58;15.18;71.63
67364;HTU21D;54250;45.572;38.086;2023-01-29T09:40:29;14.92;72.04
67364;HTU21D;54250;45.572;38.086;2023-01-29T09:43:16;14.81;71.74
67364;HTU21D;54250;45.572;38.086;2023-01-29T09:46:14;15.16;71.29
67364;HTU21D;54250;45.572;38.086;2023-01-29T09:48:43;15.47;69.73
67364;HTU21D;54250;45.572;38.086;2023-01-29T09:51:29;14.79;70.91
67364;HTU21D;54250;45.572;38.086;2023-01-29T09:56:44;14.00;72.48
67364;HTU21D;54250;45.572;38.086;2023-01-29T09:59:12;14.13;72.16
67364;HTU21D;54250;45.572;38.086;2023-01-29T10:07:14;14.91;70.52
67364;HTU21D;54250;45.572;38.086;2023-01-29T10:10:15;14.83;71.16
67364;HTU21D;54250;45.572;38.086;2023-01-29T10:23:22;19.01;65.04
67364;HTU21D;54250;45.572;38.086;2023-01-29T10:25:49;18.97;65.33
67364;HTU21D;54250;45.572;38.086;2023-01-29T10:28:23;19.06;65.47
67364;HTU21D;54250;45.572;38.086;2023-01-29T10:30:55;19.55;64.91
67364;HTU21D;54250;45.572;38.086;2023-01-29T10:33:30;20.24;64.08
67364;HTU21D;54250;45.572;38.086;2023-01-29T10:36:02;20.54;63.56
67364;HTU21D;54250;45.572;38.086;2023-01-29T10:41:20;20.96;62.66
67364;HTU21D;54250;45.572;38.086;2023-01-29T10:44:20;21.05;62.52
67364;HTU21D;54250;45.572;38.086;2023-01-29T10:49:58;19.33;65.08
67364;HTU21D;54250;45.572;38.086;2023-01-29T10:55:31;17.69;67.89
67364;HTU21D;54250;45.572;38.086;2023-01-29T11:00:56;16.84;68.99
67364;HTU21D;54250;45.572;38.086;2023-01-29T11:03:28;16.66;68.97
67364;HTU21D;54250;45.572;38.086;2023-01-29T11:11:21;16.55;68.51
67364;HTU21D;54250;45.572;38.086;2023-01-29T11:13:59;16.60;68.33
67364;HTU21D;54250;45.572;38.086;2023-01-29T11:16:28;16.56;68.14
67364;HTU21D;54250;45.572;38.086;2023-01-29T11:18:59;16.49;68.13
67364;HTU21D;54250;45.572;38.086;2023-01-29T11:21:27;16.58;68.01
67364;HTU21D;54250;45.572;38.086;2023-01-29T11:24:10;16.78;67.68
67364;HTU21D;54250;45.572;38.086;2023-01-29T11:26:39;16.80;67.31
67364;HTU21D;54250;45.572;38.086;2023-01-29T11:29:28;16.74;67.41
67364;HTU21D;54250;45.572;38.086;2023-01-29T11:31:58;16.67;67.36
67364;HTU21D;54250;45.572;38.086;2023-01-29T11:34:25;16.48;67.59
67364;HTU21D;54250;45.572;38.086;2023-01-29T11:37:00;16.30;68.01
67364;HTU21D;54250;45.572;38.086;2023-01-29T11:39:28;16.13;68.27
67364;HTU21D;54250;45.572;38.086;2023-01-29T11:41:59;15.88;68.65
67364;HTU21D;54250;45.572;38.086;2023-01-29T11:49:58;15.30;69.55
67364;HTU21D;54250;45.572;38.086;2023-01-29T11:52:38;15.21;69.69
67364;HTU21D;54250;45.572;38.086;2023-01-29T11:55:18;15.23;69.66
67364;HTU21D;54250;45.572;38.086;2023-01-29T11:57:50;15.21;69.64
67364;HTU21D;54250;45.572;38.086;2023-01-29T12:00:21;15.07;69.82
67364;HTU21D;54250;45.572;38.086;2023-01-29T12:03:14;14.82;70.16
67364;HTU21D;54250;45.572;38.086;2023-01-29T12:05:55;14.59;70.43
67364;HTU21D;54250;45.572;38.086;2023-01-29T12:08:23;14.29;70.89
67364;HTU21D;54250;45.572;38.086;2023-01-29T12:10:49;13.96;71.26
67364;HTU21D;54250;45.572;38.086;2023-01-29T12:13:28;13.66;71.58
67364;HTU21D;54250;45.572;38.086;2023-01-29T12:16:35;13.35;71.91
67364;HTU21D;54250;45.572;38.086;2023-01-29T12:19:22;13.08;72.18
67364;HTU21D;54250;45.572;38.086;2023-01-29T12:22:02;12.89;72.38
67364;HTU21D;54250;45.572;38.086;2023-01-29T12:24:40;12.76;72.49
67364;HTU21D;54250;45.572;38.086;2023-01-29T12:27:15;12.63;72.63
67364;HTU21D;54250;45.572;38.086;2023-01-29T12:40:41;12.81;72.32
67364;HTU21D;54250;45.572;38.086;2023-01-29T12:43:39;12.45;73.02
67364;HTU21D;54250;45.572;38.086;2023-01-29T12:49:12;11.77;74.43
67364;HTU21D;54250;45.572;38.086;2023-01-29T12:51:49;11.46;74.94
67364;HTU21D;54250;45.572;38.086;2023-01-29T12:54:21;11.16;75.41
67364;HTU21D;54250;45.572;38.086;2023-01-29T12:56:50;10.90;75.75
67364;HTU21D;54250;45.572;38.086;2023-01-29T12:59:40;10.66;76.02
67364;HTU21D;54250;45.572;38.086;2023-01-29T13:10:58;9.63;77.04
67364;HTU21D;54250;45.572;38.086;2023-01-29T13:13:47;9.46;77.02
67364;HTU21D;54250;45.572;38.086;2023-01-29T13:16:20;9.25;77.31
67364;HTU21D;54250;45.572;38.086;2023-01-29T13:18:56;9.07;77.46
67364;HTU21D;54250;45.572;38.086;2023-01-29T13:21:26;8.92;77.61
67364;HTU21D;54250;45.572;38.086;2023-01-29T13:23:59;8.82;77.63
67364;HTU21D;54250;45.572;38.086;2023-01-29T13:26:27;8.80;77.53
67364;HTU21D;54250;45.572;38.086;2023-01-29T13:28:53;8.88;77.17
67364;HTU21D;54250;45.572;38.086;2023-01-29T13:31:27;8.94;76.82
67364;HTU21D;54250;45.572;38.086;2023-01-29T13:36:40;8.82;76.61
67364;HTU21D;54250;45.572;38.086;2023-01-29T13:39:19;8.80;76.64
67364;HTU21D;54250;45.572;38.086;2023-01-29T13:41:49;8.75;76.80
67364;HTU21D;54250;45.572;38.086;2023-01-29T13:44:28;8.71;76.90
67364;HTU21D;54250;45.572;38.086;2023-01-29T13:47:03;8.68;77.09
67364;HTU21D;54250;45.572;38.086;2023-01-29T13:52:30;8.60;77.29
67364;HTU21D;54250;45.572;38.086;2023-01-29T13:55:02;8.51;77.45
67364;HTU21D;54250;45.572;38.086;2023-01-29T14:10:34;8.00;78.42
67364;HTU21D;54250;45.572;38.086;2023-01-29T14:15:36;8.04;78.16
67364;HTU21D;54250;45.572;38.086;2023-01-29T14:18:13;8.04;78.14
67364;HTU21D;54250;45.572;38.086;2023-01-29T14:23:32;8.01;78.15
67364;HTU21D;54250;45.572;38.086;2023-01-29T14:26:02;8.00;78.30
67364;HTU21D;54250;45.572;38.086;2023-01-29T14:28:31;7.94;78.34
67364;HTU21D;54250;45.572;38.086;2023-01-29T14:30:58;7.92;78.39
67364;HTU21D;54250;45.572;38.086;2023-01-29T14:33:34;7.87;78.38
67364;HTU21D;54250;45.572;38.086;2023-01-29T14:36:14;7.83;78.46
67364;HTU21D;54250;45.572;38.086;2023-01-29T14:38:46;7.77;78.57
67364;HTU21D;54250;45.572;38.086;2023-01-29T14:41:27;7.71;78.67
67364;HTU21D;54250;45.572;38.086;2023-01-29T14:46:57;7.56;78.92
67364;HTU21D;54250;45.572;38.086;2023-01-29T14:49:49;7.48;78.98
67364;HTU21D;54250;45.572;38.086;2023-01-29T14:52:16;7.42;79.25
67364;HTU21D;54250;45.572;38.086;2023-01-29T14:54:45;7.39;79.36
67364;HTU21D;54250;45.572;38.086;2023-01-29T14:57:14;7.35;79.38
67364;HTU21D;54250;45.572;38.086;2023-01-29T15:00:02;7.38;79.26
67364;HTU21D;54250;45.572;38.086;2023-01-29T15:02:41;7.42;79.22
67364;HTU21D;54250;45.572;38.086;2023-01-29T15:05:17;7.44;79.22
67364;HTU21D;54250;45.572;38.086;2023-01-29T15:07:46;7.45;79.24
67364;HTU21D;54250;45.572;38.086;2023-01-29T15:10:53;7.47;79.16
67364;HTU21D;54250;45.572;38.086;2023-01-29T15:13:51;7.48;79.16
67364;HTU21D;54250;45.572;38.086;2023-01-29T15:16:22;7.48;79.31
67364;HTU21D;54250;45.572;38.086;2023-01-29T15:18:53;7.47;79.40
67364;HTU21D;54250;45.572;38.086;2023-01-29T15:21:21;7.46;79.38
67364;HTU21D;54250;45.572;38.086;2023-01-29T15:23:47;7.46;79.51
67364;HTU21D;54250;45.572;38.086;2023-01-29T15:26:27;7.45;79.62
67364;HTU21D;54250;45.572;38.086;2023-01-29T15:28:57;7.43;79.72
67364;HTU21D;54250;45.572;38.086;2023-01-29T15:31:23;7.39;79.75
67364;HTU21D;54250;45.572;38.086;2023-01-29T15:33:52;7.34;79.87
67364;HTU21D;54250;45.572;38.086;2023-01-29T15:36:30;7.31;79.97
67364;HTU21D;54250;45.572;38.086;2023-01-29T15:41:34;7.25;80.07
67364;HTU21D;54250;45.572;38.086;2023-01-29T15:44:01;7.24;80.04
67364;HTU21D;54250;45.572;38.086;2023-01-29T15:46:31;7.20;80.07
67364;HTU21D;54250;45.572;38.086;2023-01-29T15:49:00;7.18;80.09
67364;HTU21D;54250;45.572;38.086;2023-01-29T15:51:28;7.14;80.08
67364;HTU21D;54250;45.572;38.086;2023-01-29T15:54:03;7.13;80.04
67364;HTU21D;54250;45.572;38.086;2023-01-29T15:56:37;7.11;80.08
67364;HTU21D;54250;45.572;38.086;2023-01-29T15:59:06;7.12;80.08
67364;HTU21D;54250;45.572;38.086;2023-01-29T16:01:33;7.10;80.08
67364;HTU21D;54250;45.572;38.086;2023-01-29T16:04:00;7.09;80.10
67364;HTU21D;54250;45.572;38.086;2023-01-29T16:06:38;7.08;80.17
67364;HTU21D;54250;45.572;38.086;2023-01-29T16:09:05;7.05;80.24
67364;HTU21D;54250;45.572;38.086;2023-01-29T16:11:33;7.05;80.28
67364;HTU21D;54250;45.572;38.086;2023-01-29T16:14:00;7.04;80.24
67364;HTU21D;54250;45.572;38.086;2023-01-29T16:16:27;7.04;80.24
67364;HTU21D;54250;45.572;38.086;2023-01-29T16:18:54;7.04;80.24
67364;HTU21D;54250;45.572;38.086;2023-01-29T16:21:30;7.05;80.21
67364;HTU21D;54250;45.572;38.086;2023-01-29T16:24:03;7.05;80.24
67364;HTU21D;54250;45.572;38.086;2023-01-29T16:26:35;7.03;80.27
67364;HTU21D;54250;45.572;38.086;2023-01-29T16:29:08;7.04;80.29
67364;HTU21D;54250;45.572;38.086;2023-01-29T16:31:35;7.02;80.33
67364;HTU21D;54250;45.572;38.086;2023-01-29T16:34:22;7.04;80.27
67364;HTU21D;54250;45.572;38.086;2023-01-29T16:36:49;7.02;80.32
67364;HTU21D;54250;45.572;38.086;2023-01-29T16:39:37;7.02;80.28
67364;HTU21D;54250;45.572;38.086;2023-01-29T16:45:01;6.96;80.31
67364;HTU21D;54250;45.572;38.086;2023-01-29T16:47:34;6.88;80.46
67364;HTU21D;54250;45.572;38.086;2023-01-29T16:50:32;6.81;80.52
67364;HTU21D;54250;45.572;38.086;2023-01-29T16:53:17;6.78;80.48
67364;HTU21D;54250;45.572;38.086;2023-01-29T16:55:47;6.75;80.59
67364;HTU21D;54250;45.572;38.086;2023-01-29T16:58:16;6.74;80.56
67364;HTU21D;54250;45.572;38.086;2023-01-29T17:00:46;6.72;80.61
67364;HTU21D;54250;45.572;38.086;2023-01-29T17:03:13;6.70;80.58
67364;HTU21D;54250;45.572;38.086;2023-01-29T17:05:41;6.68;80.61
67364;HTU21D;54250;45.572;38.086;2023-01-29T17:08:33;6.64;80.55
67364;HTU21D;54250;45.572;38.086;2023-01-29T17:11:00;6.64;80.59
67364;HTU21D;54250;45.572;38.086;2023-01-29T17:13:43;6.66;80.56
67364;HTU21D;54250;45.572;38.086;2023-01-29T17:16:14;6.60;80.52
67364;HTU21D;54250;45.572;38.086;2023-01-29T17:18:41;6.60;80.53
67364;HTU21D;54250;45.572;38.086;2023-01-29T17:21:07;6.60;80.63
67364;HTU21D;54250;45.572;38.086;2023-01-29T17:23:33;6.60;80.72
67364;HTU21D;54250;45.572;38.086;2023-01-29T17:26:00;6.58;80.79
67364;HTU21D;54250;45.572;38.086;2023-01-29T17:28:28;6.56;80.85
67364;HTU21D;54250;45.572;38.086;2023-01-29T17:30:55;6.56;80.88
67364;HTU21D;54250;45.572;38.086;2023-01-29T17:33:24;6.54;80.87
67364;HTU21D;54250;45.572;38.086;2023-01-29T17:35:51;6.52;80.89
67364;HTU21D;54250;45.572;38.086;2023-01-29T17:38:18;6.51;80.97
67364;HTU21D;54250;45.572;38.086;2023-01-29T17:41:25;6.51;80.98
67364;HTU21D;54250;45.572;38.086;2023-01-29T17:43:46;6.49;81.07
67364;HTU21D;54250;45.572;38.086;2023-01-29T17:46:15;6.49;81.20
67364;HTU21D;54250;45.572;38.086;2023-01-29T17:48:44;6.50;81.18
67364;HTU21D;54250;45.572;38.086;2023-01-29T17:51:13;6.50;81.11
67364;HTU21D;54250;45.572;38.086;2023-01-29T17:53:40;6.50;81.12
67364;HTU21D;54250;45.572;38.086;2023-01-29T17:56:24;6.49;81.05
67364;HTU21D;54250;45.572;38.086;2023-01-29T17:58:54;6.49;81.09
67364;HTU21D;54250;45.572;38.086;2023-01-29T18:01:22;6.50;81.12
67364;HTU21D;54250;45.572;38.086;2023-01-29T18:03:48;6.51;81.10
67364;HTU21D;54250;45.572;38.086;2023-01-29T18:06:32;6.52;81.02
67364;HTU21D;54250;45.572;38.086;2023-01-29T18:09:00;6.53;81.04
67364;HTU21D;54250;45.572;38.086;2023-01-29T18:11:26;6.54;81.08
67364;HTU21D;54250;45.572;38.086;2023-01-29T18:13:53;6.54;81.07